sensor_id;sensor_type;location;lat;lon;timestamp;P1;durP1;ratioP1;P2;durP2;ratioP2
32746;SDS011;19118;50.860;13.662;2023-07-09T00:03:00;6.03;;;3.70;;
32746;SDS011;19118;50.860;13.662;2023-07-09T00:08:00;7.57;;;3.60;;
32746;SDS011;19118;50.860;13.662;2023-07-09T00:13:01;11.65;;;3.85;;
32746;SDS011;19118;50.860;13.662;2023-07-09T00:18:01;7.07;;;3.83;;
32746;SDS011;19118;50.860;13.662;2023-07-09T00:23:01;9.27;;;3.93;;
32746;SDS011;19118;50.860;13.662;2023-07-09T00:28:05;9.35;;;4.03;;
32746;SDS011;19118;50.860;13.662;2023-07-09T00:33:06;10.50;;;4.40;;
32746;SDS011;19118;50.860;13.662;2023-07-09T00:38:12;10.23;;;4.30;;
32746;SDS011;19118;50.860;13.662;2023-07-09T00:43:15;5.50;;;4.00;;
32746;SDS011;19118;50.860;13.662;2023-07-09T00:48:16;6.13;;;4.05;;
32746;SDS011;19118;50.860;13.662;2023-07-09T00:53:20;6.22;;;3.95;;
32746;SDS011;19118;50.860;13.662;2023-07-09T00:58:27;9.13;;;4.50;;
32746;SDS011;19118;50.860;13.662;2023-07-09T01:08:37;6.75;;;4.07;;
32746;SDS011;19118;50.860;13.662;2023-07-09T01:13:43;6.38;;;4.10;;
32746;SDS011;19118;50.860;13.662;2023-07-09T01:18:45;8.75;;;4.03;;
32746;SDS011;19118;50.860;13.662;2023-07-09T01:23:46;7.37;;;4.80;;
32746;SDS011;19118;50.860;13.662;2023-07-09T01:28:48;7.15;;;3.75;;
32746;SDS011;19118;50.860;13.662;2023-07-09T01:33:48;8.00;;;5.00;;
32746;SDS011;19118;50.860;13.662;2023-07-09T01:38:51;8.52;;;3.80;;
32746;SDS011;19118;50.860;13.662;2023-07-09T01:43:53;9.30;;;4.75;;
32746;SDS011;19118;50.860;13.662;2023-07-09T01:48:54;11.65;;;4.65;;
32746;SDS011;19118;50.860;13.662;2023-07-09T01:53:54;7.77;;;4.97;;
32746;SDS011;19118;50.860;13.662;2023-07-09T01:58:54;7.15;;;4.28;;
32746;SDS011;19118;50.860;13.662;2023-07-09T02:04:01;9.02;;;4.07;;
32746;SDS011;19118;50.860;13.662;2023-07-09T02:09:01;7.55;;;4.22;;
32746;SDS011;19118;50.860;13.662;2023-07-09T02:14:02;8.00;;;3.95;;
32746;SDS011;19118;50.860;13.662;2023-07-09T02:19:02;7.57;;;4.20;;
32746;SDS011;19118;50.860;13.662;2023-07-09T02:24:03;12.03;;;3.93;;
32746;SDS011;19118;50.860;13.662;2023-07-09T02:29:04;5.20;;;3.63;;
32746;SDS011;19118;50.860;13.662;2023-07-09T02:34:04;8.00;;;4.88;;
32746;SDS011;19118;50.860;13.662;2023-07-09T02:39:04;10.93;;;4.20;;
32746;SDS011;19118;50.860;13.662;2023-07-09T02:44:05;11.97;;;4.07;;
32746;SDS011;19118;50.860;13.662;2023-07-09T02:49:06;9.05;;;4.30;;
32746;SDS011;19118;50.860;13.662;2023-07-09T02:54:08;11.68;;;4.40;;
32746;SDS011;19118;50.860;13.662;2023-07-09T02:59:08;6.75;;;4.10;;
32746;SDS011;19118;50.860;13.662;2023-07-09T03:04:09;8.60;;;3.90;;
32746;SDS011;19118;50.860;13.662;2023-07-09T03:09:09;12.02;;;4.55;;
32746;SDS011;19118;50.860;13.662;2023-07-09T03:14:10;7.33;;;4.80;;
32746;SDS011;19118;50.860;13.662;2023-07-09T03:19:10;6.15;;;4.07;;
32746;SDS011;19118;50.860;13.662;2023-07-09T03:24:11;14.25;;;5.18;;
32746;SDS011;19118;50.860;13.662;2023-07-09T03:29:11;8.40;;;4.85;;
32746;SDS011;19118;50.860;13.662;2023-07-09T03:34:12;10.90;;;4.82;;
32746;SDS011;19118;50.860;13.662;2023-07-09T03:39:12;9.33;;;3.90;;
32746;SDS011;19118;50.860;13.662;2023-07-09T03:44:13;7.60;;;4.00;;
32746;SDS011;19118;50.860;13.662;2023-07-09T03:49:13;11.60;;;4.07;;
32746;SDS011;19118;50.860;13.662;2023-07-09T03:54:13;10.27;;;4.00;;
32746;SDS011;19118;50.860;13.662;2023-07-09T03:59:14;6.43;;;4.00;;
32746;SDS011;19118;50.860;13.662;2023-07-09T04:04:14;5.75;;;3.67;;
32746;SDS011;19118;50.860;13.662;2023-07-09T04:09:15;4.95;;;3.30;;
32746;SDS011;19118;50.860;13.662;2023-07-09T04:14:15;6.27;;;3.53;;
32746;SDS011;19118;50.860;13.662;2023-07-09T04:19:15;10.20;;;4.17;;
32746;SDS011;19118;50.860;13.662;2023-07-09T04:24:16;7.30;;;3.23;;
32746;SDS011;19118;50.860;13.662;2023-07-09T04:29:18;6.97;;;3.35;;
32746;SDS011;19118;50.860;13.662;2023-07-09T04:34:18;6.27;;;3.10;;
32746;SDS011;19118;50.860;13.662;2023-07-09T04:39:18;6.70;;;3.80;;
32746;SDS011;19118;50.860;13.662;2023-07-09T04:44:19;10.20;;;3.07;;
32746;SDS011;19118;50.860;13.662;2023-07-09T04:49:19;5.23;;;3.60;;
32746;SDS011;19118;50.860;13.662;2023-07-09T04:54:19;5.90;;;3.47;;
32746;SDS011;19118;50.860;13.662;2023-07-09T04:59:22;7.97;;;3.83;;
32746;SDS011;19118;50.860;13.662;2023-07-09T05:04:23;5.53;;;3.38;;
32746;SDS011;19118;50.860;13.662;2023-07-09T05:09:23;9.67;;;3.87;;
32746;SDS011;19118;50.860;13.662;2023-07-09T05:14:25;8.38;;;3.53;;
32746;SDS011;19118;50.860;13.662;2023-07-09T05:19:26;5.47;;;3.47;;
32746;SDS011;19118;50.860;13.662;2023-07-09T05:24:27;5.33;;;3.00;;
32746;SDS011;19118;50.860;13.662;2023-07-09T05:29:27;4.53;;;3.15;;
32746;SDS011;19118;50.860;13.662;2023-07-09T05:34:28;7.75;;;3.47;;
32746;SDS011;19118;50.860;13.662;2023-07-09T05:39:28;8.37;;;3.47;;
32746;SDS011;19118;50.860;13.662;2023-07-09T05:44:28;5.23;;;3.10;;
32746;SDS011;19118;50.860;13.662;2023-07-09T05:49:29;9.60;;;3.40;;
32746;SDS011;19118;50.860;13.662;2023-07-09T05:54:29;6.40;;;3.80;;
32746;SDS011;19118;50.860;13.662;2023-07-09T05:59:29;10.57;;;3.57;;
32746;SDS011;19118;50.860;13.662;2023-07-09T06:04:29;5.10;;;3.70;;
32746;SDS011;19118;50.860;13.662;2023-07-09T06:09:33;5.88;;;3.25;;
32746;SDS011;19118;50.860;13.662;2023-07-09T06:14:33;4.97;;;2.78;;
32746;SDS011;19118;50.860;13.662;2023-07-09T06:19:34;5.82;;;3.10;;
32746;SDS011;19118;50.860;13.662;2023-07-09T06:24:34;6.13;;;3.60;;
32746;SDS011;19118;50.860;13.662;2023-07-09T06:29:34;4.87;;;3.10;;
32746;SDS011;19118;50.860;13.662;2023-07-09T06:34:37;6.22;;;3.20;;
32746;SDS011;19118;50.860;13.662;2023-07-09T06:39:37;4.93;;;3.40;;
32746;SDS011;19118;50.860;13.662;2023-07-09T06:44:38;6.43;;;3.20;;
32746;SDS011;19118;50.860;13.662;2023-07-09T06:49:38;5.57;;;3.38;;
32746;SDS011;19118;50.860;13.662;2023-07-09T06:54:38;7.70;;;3.43;;
32746;SDS011;19118;50.860;13.662;2023-07-09T06:59:39;6.60;;;3.57;;
32746;SDS011;19118;50.860;13.662;2023-07-09T07:04:39;6.33;;;3.00;;
32746;SDS011;19118;50.860;13.662;2023-07-09T07:09:40;8.02;;;3.47;;
32746;SDS011;19118;50.860;13.662;2023-07-09T07:14:41;4.20;;;2.77;;
32746;SDS011;19118;50.860;13.662;2023-07-09T07:19:41;4.78;;;3.15;;
32746;SDS011;19118;50.860;13.662;2023-07-09T07:24:41;9.15;;;3.65;;
32746;SDS011;19118;50.860;13.662;2023-07-09T07:29:42;9.63;;;3.17;;
32746;SDS011;19118;50.860;13.662;2023-07-09T07:34:42;7.00;;;3.90;;
32746;SDS011;19118;50.860;13.662;2023-07-09T07:39:43;6.47;;;3.15;;
32746;SDS011;19118;50.860;13.662;2023-07-09T07:44:43;4.97;;;3.33;;
32746;SDS011;19118;50.860;13.662;2023-07-09T07:49:43;5.47;;;3.28;;
32746;SDS011;19118;50.860;13.662;2023-07-09T07:54:44;5.63;;;3.37;;
32746;SDS011;19118;50.860;13.662;2023-07-09T07:59:44;4.57;;;3.08;;
32746;SDS011;19118;50.860;13.662;2023-07-09T08:04:46;9.45;;;3.10;;
32746;SDS011;19118;50.860;13.662;2023-07-09T08:09:46;11.52;;;3.65;;
32746;SDS011;19118;50.860;13.662;2023-07-09T08:14:47;12.52;;;3.53;;
32746;SDS011;19118;50.860;13.662;2023-07-09T08:19:49;14.67;;;3.57;;
32746;SDS011;19118;50.860;13.662;2023-07-09T08:24:52;18.27;;;3.63;;
32746;SDS011;19118;50.860;13.662;2023-07-09T08:29:53;5.27;;;3.00;;
32746;SDS011;19118;50.860;13.662;2023-07-09T08:34:53;8.23;;;3.83;;
32746;SDS011;19118;50.860;13.662;2023-07-09T08:39:53;5.30;;;3.20;;
32746;SDS011;19118;50.860;13.662;2023-07-09T08:45:02;4.33;;;3.20;;
32746;SDS011;19118;50.860;13.662;2023-07-09T08:50:24;7.63;;;3.63;;
32746;SDS011;19118;50.860;13.662;2023-07-09T08:55:32;8.73;;;3.80;;
32746;SDS011;19118;50.860;13.662;2023-07-09T09:00:41;6.60;;;3.92;;
32746;SDS011;19118;50.860;13.662;2023-07-09T09:05:49;5.97;;;3.42;;
32746;SDS011;19118;50.860;13.662;2023-07-09T09:11:12;7.03;;;3.90;;
32746;SDS011;19118;50.860;13.662;2023-07-09T09:16:25;5.78;;;3.55;;
32746;SDS011;19118;50.860;13.662;2023-07-09T09:21:34;4.25;;;3.33;;
32746;SDS011;19118;50.860;13.662;2023-07-09T09:26:36;9.90;;;3.30;;
32746;SDS011;19118;50.860;13.662;2023-07-09T09:31:42;6.38;;;3.72;;
32746;SDS011;19118;50.860;13.662;2023-07-09T09:36:45;5.97;;;4.00;;
32746;SDS011;19118;50.860;13.662;2023-07-09T09:41:46;4.43;;;3.77;;
32746;SDS011;19118;50.860;13.662;2023-07-09T09:46:49;5.95;;;3.70;;
32746;SDS011;19118;50.860;13.662;2023-07-09T09:51:53;5.40;;;3.70;;
32746;SDS011;19118;50.860;13.662;2023-07-09T09:56:56;5.30;;;2.92;;
32746;SDS011;19118;50.860;13.662;2023-07-09T10:02:00;8.38;;;3.88;;
32746;SDS011;19118;50.860;13.662;2023-07-09T10:07:04;11.10;;;4.35;;
32746;SDS011;19118;50.860;13.662;2023-07-09T10:18:16;4.63;;;3.15;;
32746;SDS011;19118;50.860;13.662;2023-07-09T10:23:30;7.10;;;3.78;;
32746;SDS011;19118;50.860;13.662;2023-07-09T10:28:50;10.52;;;3.90;;
32746;SDS011;19118;50.860;13.662;2023-07-09T10:34:06;7.72;;;3.40;;
32746;SDS011;19118;50.860;13.662;2023-07-09T10:39:21;15.73;;;4.03;;
32746;SDS011;19118;50.860;13.662;2023-07-09T10:44:35;6.95;;;3.35;;
32746;SDS011;19118;50.860;13.662;2023-07-09T10:49:40;7.35;;;3.47;;
32746;SDS011;19118;50.860;13.662;2023-07-09T10:54:47;5.13;;;3.35;;
32746;SDS011;19118;50.860;13.662;2023-07-09T11:05:01;12.23;;;3.70;;
32746;SDS011;19118;50.860;13.662;2023-07-09T11:10:14;5.28;;;3.28;;
32746;SDS011;19118;50.860;13.662;2023-07-09T11:15:25;5.93;;;3.40;;
32746;SDS011;19118;50.860;13.662;2023-07-09T11:25:40;5.65;;;3.60;;
32746;SDS011;19118;50.860;13.662;2023-07-09T11:30:47;10.75;;;2.92;;
32746;SDS011;19118;50.860;13.662;2023-07-09T11:35:50;8.00;;;3.80;;
32746;SDS011;19118;50.860;13.662;2023-07-09T11:40:54;8.15;;;3.42;;
32746;SDS011;19118;50.860;13.662;2023-07-09T11:45:56;4.20;;;3.30;;
32746;SDS011;19118;50.860;13.662;2023-07-09T11:51:07;7.22;;;3.70;;
32746;SDS011;19118;50.860;13.662;2023-07-09T11:56:13;11.63;;;3.72;;
32746;SDS011;19118;50.860;13.662;2023-07-09T12:01:18;10.55;;;3.08;;
32746;SDS011;19118;50.860;13.662;2023-07-09T12:06:29;7.30;;;4.07;;
32746;SDS011;19118;50.860;13.662;2023-07-09T12:11:33;7.67;;;4.83;;
32746;SDS011;19118;50.860;13.662;2023-07-09T12:16:39;7.25;;;4.00;;
32746;SDS011;19118;50.860;13.662;2023-07-09T12:21:45;8.45;;;3.80;;
32746;SDS011;19118;50.860;13.662;2023-07-09T12:26:54;5.05;;;3.53;;
32746;SDS011;19118;50.860;13.662;2023-07-09T12:31:58;4.38;;;3.33;;
32746;SDS011;19118;50.860;13.662;2023-07-09T12:36:59;8.75;;;4.05;;
32746;SDS011;19118;50.860;13.662;2023-07-09T12:42:00;11.23;;;3.67;;
32746;SDS011;19118;50.860;13.662;2023-07-09T12:47:02;11.43;;;4.07;;
32746;SDS011;19118;50.860;13.662;2023-07-09T12:52:03;7.43;;;3.90;;
32746;SDS011;19118;50.860;13.662;2023-07-09T12:57:13;7.78;;;3.92;;
32746;SDS011;19118;50.860;13.662;2023-07-09T13:12:30;15.93;;;5.30;;
32746;SDS011;19118;50.860;13.662;2023-07-09T13:17:32;6.03;;;3.92;;
32746;SDS011;19118;50.860;13.662;2023-07-09T13:22:33;11.20;;;4.63;;
32746;SDS011;19118;50.860;13.662;2023-07-09T13:27:33;5.23;;;3.77;;
32746;SDS011;19118;50.860;13.662;2023-07-09T13:32:33;8.80;;;3.73;;
32746;SDS011;19118;50.860;13.662;2023-07-09T13:37:33;6.63;;;3.67;;
32746;SDS011;19118;50.860;13.662;2023-07-09T13:42:34;7.37;;;4.00;;
32746;SDS011;19118;50.860;13.662;2023-07-09T13:47:34;5.77;;;4.00;;
32746;SDS011;19118;50.860;13.662;2023-07-09T13:52:36;11.50;;;3.92;;
32746;SDS011;19118;50.860;13.662;2023-07-09T13:57:36;5.95;;;4.10;;
32746;SDS011;19118;50.860;13.662;2023-07-09T14:02:37;5.73;;;3.60;;
32746;SDS011;19118;50.860;13.662;2023-07-09T14:07:38;10.65;;;3.95;;
32746;SDS011;19118;50.860;13.662;2023-07-09T14:12:41;12.70;;;4.30;;
32746;SDS011;19118;50.860;13.662;2023-07-09T14:17:44;13.63;;;4.00;;
32746;SDS011;19118;50.860;13.662;2023-07-09T14:22:47;12.38;;;4.10;;
32746;SDS011;19118;50.860;13.662;2023-07-09T14:27:48;7.45;;;4.25;;
32746;SDS011;19118;50.860;13.662;2023-07-09T14:32:50;8.48;;;4.03;;
32746;SDS011;19118;50.860;13.662;2023-07-09T14:37:52;19.27;;;4.93;;
32746;SDS011;19118;50.860;13.662;2023-07-09T14:42:54;12.35;;;4.78;;
32746;SDS011;19118;50.860;13.662;2023-07-09T14:47:55;16.35;;;4.65;;
32746;SDS011;19118;50.860;13.662;2023-07-09T14:52:55;13.30;;;4.63;;
32746;SDS011;19118;50.860;13.662;2023-07-09T14:57:55;12.60;;;4.33;;
32746;SDS011;19118;50.860;13.662;2023-07-09T15:03:00;13.32;;;5.03;;
32746;SDS011;19118;50.860;13.662;2023-07-09T15:08:00;7.00;;;4.40;;
32746;SDS011;19118;50.860;13.662;2023-07-09T15:13:17;6.07;;;4.45;;
32746;SDS011;19118;50.860;13.662;2023-07-09T15:18:27;7.63;;;4.30;;
32746;SDS011;19118;50.860;13.662;2023-07-09T15:23:27;7.22;;;4.68;;
32746;SDS011;19118;50.860;13.662;2023-07-09T15:28:29;7.45;;;4.78;;
32746;SDS011;19118;50.860;13.662;2023-07-09T15:33:29;7.83;;;4.80;;
32746;SDS011;19118;50.860;13.662;2023-07-09T15:38:32;11.93;;;4.53;;
32746;SDS011;19118;50.860;13.662;2023-07-09T15:43:34;9.50;;;4.75;;
32746;SDS011;19118;50.860;13.662;2023-07-09T15:48:35;8.65;;;5.95;;
32746;SDS011;19118;50.860;13.662;2023-07-09T15:53:36;8.77;;;4.78;;
32746;SDS011;19118;50.860;13.662;2023-07-09T15:58:40;16.77;;;4.82;;
32746;SDS011;19118;50.860;13.662;2023-07-09T16:03:43;8.65;;;5.00;;
32746;SDS011;19118;50.860;13.662;2023-07-09T16:08:46;8.27;;;5.05;;
32746;SDS011;19118;50.860;13.662;2023-07-09T16:13:47;11.07;;;5.97;;
32746;SDS011;19118;50.860;13.662;2023-07-09T16:18:48;14.00;;;5.10;;
32746;SDS011;19118;50.860;13.662;2023-07-09T16:23:49;11.25;;;4.13;;
32746;SDS011;19118;50.860;13.662;2023-07-09T16:28:50;8.13;;;4.70;;
32746;SDS011;19118;50.860;13.662;2023-07-09T16:33:51;12.90;;;4.45;;
32746;SDS011;19118;50.860;13.662;2023-07-09T16:38:52;8.43;;;4.95;;
32746;SDS011;19118;50.860;13.662;2023-07-09T16:43:52;8.57;;;4.00;;
32746;SDS011;19118;50.860;13.662;2023-07-09T16:48:52;7.90;;;4.07;;
32746;SDS011;19118;50.860;13.662;2023-07-09T16:53:54;6.25;;;4.47;;
32746;SDS011;19118;50.860;13.662;2023-07-09T16:58:54;7.40;;;4.43;;
32746;SDS011;19118;50.860;13.662;2023-07-09T17:03:55;8.93;;;4.03;;
32746;SDS011;19118;50.860;13.662;2023-07-09T17:08:55;9.70;;;3.83;;
32746;SDS011;19118;50.860;13.662;2023-07-09T17:13:55;6.00;;;4.00;;
32746;SDS011;19118;50.860;13.662;2023-07-09T17:18:56;13.48;;;4.40;;
32746;SDS011;19118;50.860;13.662;2023-07-09T17:23:56;14.40;;;3.83;;
32746;SDS011;19118;50.860;13.662;2023-07-09T17:28:56;15.77;;;4.40;;
32746;SDS011;19118;50.860;13.662;2023-07-09T17:33:57;8.80;;;4.37;;
32746;SDS011;19118;50.860;13.662;2023-07-09T17:38:57;9.67;;;4.27;;
32746;SDS011;19118;50.860;13.662;2023-07-09T17:43:58;7.93;;;3.92;;
32746;SDS011;19118;50.860;13.662;2023-07-09T17:48:58;7.20;;;4.00;;
32746;SDS011;19118;50.860;13.662;2023-07-09T17:53:59;16.50;;;3.83;;
32746;SDS011;19118;50.860;13.662;2023-07-09T17:59:00;11.50;;;4.90;;
32746;SDS011;19118;50.860;13.662;2023-07-09T18:04:00;9.67;;;4.07;;
32746;SDS011;19118;50.860;13.662;2023-07-09T18:09:00;7.80;;;4.17;;
32746;SDS011;19118;50.860;13.662;2023-07-09T18:14:02;14.50;;;4.43;;
32746;SDS011;19118;50.860;13.662;2023-07-09T18:19:04;5.97;;;4.10;;
32746;SDS011;19118;50.860;13.662;2023-07-09T18:24:05;8.97;;;4.17;;
32746;SDS011;19118;50.860;13.662;2023-07-09T18:29:05;6.95;;;4.10;;
32746;SDS011;19118;50.860;13.662;2023-07-09T18:34:09;14.88;;;4.93;;
32746;SDS011;19118;50.860;13.662;2023-07-09T18:39:09;8.55;;;4.35;;
32746;SDS011;19118;50.860;13.662;2023-07-09T18:44:19;10.13;;;4.40;;
32746;SDS011;19118;50.860;13.662;2023-07-09T18:49:21;7.57;;;4.18;;
32746;SDS011;19118;50.860;13.662;2023-07-09T18:54:21;7.17;;;4.63;;
32746;SDS011;19118;50.860;13.662;2023-07-09T18:59:22;9.82;;;4.25;;
32746;SDS011;19118;50.860;13.662;2023-07-09T19:04:25;12.05;;;5.38;;
32746;SDS011;19118;50.860;13.662;2023-07-09T19:09:31;12.13;;;4.80;;
32746;SDS011;19118;50.860;13.662;2023-07-09T19:14:32;11.43;;;4.47;;
32746;SDS011;19118;50.860;13.662;2023-07-09T19:19:32;12.82;;;4.35;;
32746;SDS011;19118;50.860;13.662;2023-07-09T19:24:33;13.37;;;4.37;;
32746;SDS011;19118;50.860;13.662;2023-07-09T19:29:33;10.30;;;4.88;;
32746;SDS011;19118;50.860;13.662;2023-07-09T19:34:35;6.70;;;4.80;;
32746;SDS011;19118;50.860;13.662;2023-07-09T19:39:41;10.77;;;4.70;;
32746;SDS011;19118;50.860;13.662;2023-07-09T19:44:43;8.88;;;4.38;;
32746;SDS011;19118;50.860;13.662;2023-07-09T19:49:44;7.38;;;4.15;;
32746;SDS011;19118;50.860;13.662;2023-07-09T19:54:45;15.10;;;4.82;;
32746;SDS011;19118;50.860;13.662;2023-07-09T19:59:46;9.13;;;4.75;;
32746;SDS011;19118;50.860;13.662;2023-07-09T20:04:47;8.52;;;4.25;;
32746;SDS011;19118;50.860;13.662;2023-07-09T20:09:47;15.98;;;4.45;;
32746;SDS011;19118;50.860;13.662;2023-07-09T20:14:47;8.23;;;4.63;;
32746;SDS011;19118;50.860;13.662;2023-07-09T20:19:48;8.77;;;4.70;;
32746;SDS011;19118;50.860;13.662;2023-07-09T20:24:48;6.60;;;4.20;;
32746;SDS011;19118;50.860;13.662;2023-07-09T20:29:49;12.83;;;4.17;;
32746;SDS011;19118;50.860;13.662;2023-07-09T20:34:50;8.73;;;4.03;;
32746;SDS011;19118;50.860;13.662;2023-07-09T20:39:52;12.57;;;4.80;;
32746;SDS011;19118;50.860;13.662;2023-07-09T20:44:53;9.37;;;5.20;;
32746;SDS011;19118;50.860;13.662;2023-07-09T20:49:55;8.20;;;5.43;;
32746;SDS011;19118;50.860;13.662;2023-07-09T20:54:56;11.35;;;4.60;;
32746;SDS011;19118;50.860;13.662;2023-07-09T20:59:56;9.98;;;5.70;;
32746;SDS011;19118;50.860;13.662;2023-07-09T21:04:56;9.77;;;5.43;;
32746;SDS011;19118;50.860;13.662;2023-07-09T21:09:57;10.80;;;4.90;;
32746;SDS011;19118;50.860;13.662;2023-07-09T21:14:57;7.63;;;5.03;;
32746;SDS011;19118;50.860;13.662;2023-07-09T21:19:57;12.60;;;4.73;;
32746;SDS011;19118;50.860;13.662;2023-07-09T21:24:58;11.67;;;4.70;;
32746;SDS011;19118;50.860;13.662;2023-07-09T21:30:14;9.82;;;5.03;;
32746;SDS011;19118;50.860;13.662;2023-07-09T21:35:20;7.60;;;4.93;;
32746;SDS011;19118;50.860;13.662;2023-07-09T21:40:35;8.10;;;4.35;;
32746;SDS011;19118;50.860;13.662;2023-07-09T21:45:37;9.93;;;4.88;;
32746;SDS011;19118;50.860;13.662;2023-07-09T21:50:40;6.65;;;4.22;;
32746;SDS011;19118;50.860;13.662;2023-07-09T21:55:40;8.00;;;4.55;;
32746;SDS011;19118;50.860;13.662;2023-07-09T22:00:41;12.60;;;4.63;;
32746;SDS011;19118;50.860;13.662;2023-07-09T22:05:43;10.27;;;4.90;;
32746;SDS011;19118;50.860;13.662;2023-07-09T22:10:43;8.23;;;4.43;;
32746;SDS011;19118;50.860;13.662;2023-07-09T22:15:46;7.85;;;5.30;;
32746;SDS011;19118;50.860;13.662;2023-07-09T22:20:47;9.68;;;4.90;;
32746;SDS011;19118;50.860;13.662;2023-07-09T22:25:48;15.52;;;4.95;;
32746;SDS011;19118;50.860;13.662;2023-07-09T22:30:49;8.50;;;4.32;;
32746;SDS011;19118;50.860;13.662;2023-07-09T22:35:50;9.75;;;4.25;;
32746;SDS011;19118;50.860;13.662;2023-07-09T22:40:50;7.77;;;4.40;;
32746;SDS011;19118;50.860;13.662;2023-07-09T22:45:51;10.98;;;4.72;;
32746;SDS011;19118;50.860;13.662;2023-07-09T22:50:51;6.25;;;4.03;;
32746;SDS011;19118;50.860;13.662;2023-07-09T22:55:55;7.03;;;4.32;;
32746;SDS011;19118;50.860;13.662;2023-07-09T23:00:56;6.57;;;4.23;;
32746;SDS011;19118;50.860;13.662;2023-07-09T23:06:02;7.68;;;4.82;;
32746;SDS011;19118;50.860;13.662;2023-07-09T23:16:24;6.38;;;3.88;;
32746;SDS011;19118;50.860;13.662;2023-07-09T23:21:26;8.15;;;4.45;;
32746;SDS011;19118;50.860;13.662;2023-07-09T23:26:28;7.45;;;4.18;;
32746;SDS011;19118;50.860;13.662;2023-07-09T23:31:30;16.40;;;4.57;;
32746;SDS011;19118;50.860;13.662;2023-07-09T23:36:31;7.82;;;4.45;;
32746;SDS011;19118;50.860;13.662;2023-07-09T23:41:33;10.35;;;4.70;;
32746;SDS011;19118;50.860;13.662;2023-07-09T23:46:38;9.93;;;4.38;;
32746;SDS011;19118;50.860;13.662;2023-07-09T23:51:39;7.70;;;4.40;;
32746;SDS011;19118;50.860;13.662;2023-07-09T23:56:39;10.47;;;4.17;;
